This is the latest recevied weather packets stored in our database for station/object N3HBJ. If no packets are shown the sender has not sent any weather packets the latest 10 day(s).
| Time | Temp. | Humidity | Pressure | Rain* | Wind** | Luminosity | Snow |
|---|---|---|---|---|---|---|---|
| 1777763542 | 5.56° C | 71% | 1013.9 hPa | 0 mm | - | 16 W/m² | - |
| 1777761130 | 6.11° C | 70% | 1013.7 hPa | 0 mm | - | 33 W/m² | - |
| 1777759630 | 6.11° C | 69% | 1013.7 hPa | 0 mm | - | 44 W/m² | - |
| 1777757073 | 6.67° C | 68% | 1013.4 hPa | 0 mm | - | 67 W/m² | - |
| 1777756030 | 6.11° C | 69% | 1013.4 hPa | 0 mm | - | 162 W/m² | - |
| 1777754525 | 5.56° C | 73% | 1013.5 hPa | 0 mm | - | 148 W/m² | - |
| 1777753320 | 6.11° C | 73% | 1013.6 hPa | 0 mm | - | 83 W/m² | - |
| 1777753169 | 6.11° C | 73% | 1013.7 hPa | 0 mm | - | 90 W/m² | - |
| 1777752118 | 6.11° C | 71% | 1013.6 hPa | 0 mm | - | 67 W/m² | - |
| 1777750607 | 6.11° C | 71% | 1013.9 hPa | 0 mm | - | 130 W/m² | - |
| 1777749394 | 6.11° C | 71% | 1014.1 hPa | 0 mm | - | 84 W/m² | - |
| 1777746989 | 6.67° C | 68% | 1014.2 hPa | 0 mm | - | 102 W/m² | - |
| 1777743982 | 7.22° C | 62% | 1014 hPa | 0 mm | - | 304 W/m² | - |
| 1777742778 | 7.22° C | 60% | 1014 hPa | 0 mm | - | 211 W/m² | - |
| 1777741877 | 7.78° C | 60% | 1014 hPa | 0 mm | - | 86 W/m² | - |
| 1777741292 | 7.22° C | 58% | 1014 hPa | 0 mm | - | 211 W/m² | - |
| 1777740077 | 7.22° C | 63% | 1014.2 hPa | 0 mm | - | 243 W/m² | - |
| 1777737680 | 6.67° C | 64% | 1014.3 hPa | 0 mm | - | 156 W/m² | - |
| 1777736777 | 6.11° C | 64% | 1014.4 hPa | 0 mm | - | 267 W/m² | - |
| 1777736328 | 6.11° C | 64% | 1014.5 hPa | 0 mm | - | 163 W/m² | - |
| 1777735578 | 6.11° C | 63% | 1014.5 hPa | 0 mm | - | 158 W/m² | - |
| 1777732864 | 6.67° C | 60% | 1014.4 hPa | 0 mm | - | 329 W/m² | - |
| 1777730465 | 6.11° C | 63% | 1014.4 hPa | 0 mm | - | 751 W/m² | - |
| 1777730164 | 6.11° C | 63% | 1014.5 hPa | 0 mm | - | 835 W/m² | - |
| 1777722325 | 2.22° C | 93% | 1015.4 hPa | 0 mm | - | 151 W/m² | - |
* Rain latest hour (hover to see other rain measurements)
** Current wind speed in m/s (hover to see current wind gust speed)